Time;durP1;ratioP1;P1;durP2;ratioP2;P2;SDS_P1;SDS_P2;PMS_P1;PMS_P2;Temp;Humidity;BMP_temperature;BMP_pressure;BME280_temperature;BME280_humidity;BME280_pressure;Samples;Min_cycle;Max_cycle;Signal;HPM_P1;HPM_P2
2021/08/19 00:01:43;;;;;;;;;;;13.50;99.90;;;;;;5094762;28;19912;-66
2021/08/19 00:04:09;;;;;;;;;;;13.60;99.90;;;;;;5093528;28;19985;-66
2021/08/19 00:06:36;;;;;;;;;;;13.60;99.90;;;;;;5094168;28;19919;-66
2021/08/19 00:09:03;;;;;;;;;;;13.50;99.90;;;;;;5093113;28;19914;-66
2021/08/19 00:11:30;;;;;;;;;;;13.60;99.90;;;;;;5094644;28;19908;-66
2021/08/19 00:13:56;;;;;;;;;;;13.60;99.90;;;;;;5094619;28;19916;-66
2021/08/19 00:16:23;;;;;;;;;;;13.70;99.90;;;;;;5093889;28;19976;-66
2021/08/19 00:18:50;;;;;;;;;;;13.70;99.90;;;;;;5076338;28;20331;-66
2021/08/19 00:21:16;;;;;;;;;;;13.80;99.90;;;;;;5094248;28;19924;-66
2021/08/19 00:23:43;;;;;;;;;;;13.80;99.90;;;;;;5094339;28;19912;-67
2021/08/19 00:26:10;;;;;;;;;;;14.00;99.90;;;;;;5094110;28;19912;-66
2021/08/19 00:28:37;;;;;;;;;;;14.10;99.90;;;;;;5092896;28;19912;-66
2021/08/19 00:31:03;;;;;;;;;;;14.10;99.90;;;;;;5094089;28;20002;-66
2021/08/19 00:33:30;;;;;;;;;;;14.20;99.90;;;;;;5094229;28;19912;-66
2021/08/19 00:35:57;;;;;;;;;;;14.20;99.90;;;;;;5093974;28;19912;-67
2021/08/19 00:38:23;;;;;;;;;;;14.20;99.90;;;;;;5094097;28;20354;-67
2021/08/19 00:40:50;;;;;;;;;;;14.30;99.90;;;;;;5094366;28;19915;-66
2021/08/19 00:43:18;;;;;;;;;;;14.30;99.90;;;;;;5094154;28;19908;-67
2021/08/19 00:45:44;;;;;;;;;;;14.40;99.90;;;;;;5093098;28;20007;-66
2021/08/19 00:48:11;;;;;;;;;;;14.60;99.90;;;;;;5093951;28;20046;-66
2021/08/19 00:50:38;;;;;;;;;;;14.70;99.90;;;;;;5092242;28;19912;-66
2021/08/19 00:53:04;;;;;;;;;;;14.90;99.90;;;;;;5090801;28;19919;-67
2021/08/19 00:55:31;;;;;;;;;;;15.00;99.90;;;;;;5093927;28;20275;-66
2021/08/19 00:57:58;;;;;;;;;;;15.10;99.90;;;;;;5094212;28;19909;-66
2021/08/19 01:00:25;;;;;;;;;;;15.10;99.90;;;;;;5093579;28;19916;-67
2021/08/19 01:02:54;;;;;;;;;;;15.20;99.90;;;;;;5075567;28;19909;-67
2021/08/19 01:05:27;;;;;;;;;;;15.20;99.90;;;;;;5093723;28;20016;-66
2021/08/19 01:07:53;;;;;;;;;;;15.20;99.90;;;;;;5075423;28;20466;-66
2021/08/19 01:10:20;;;;;;;;;;;15.20;99.90;;;;;;5093694;28;19918;-66
2021/08/19 01:12:47;;;;;;;;;;;15.30;99.90;;;;;;5093719;28;19924;-66
2021/08/19 01:15:14;;;;;;;;;;;15.60;99.90;;;;;;5093000;28;19908;-66
2021/08/19 01:17:41;;;;;;;;;;;15.80;99.90;;;;;;5093183;28;19909;-66
2021/08/19 01:20:08;;;;;;;;;;;15.80;99.90;;;;;;5093790;28;19926;-65
2021/08/19 01:22:35;;;;;;;;;;;15.90;99.90;;;;;;5093410;28;19912;-67
2021/08/19 01:25:02;;;;;;;;;;;16.00;99.90;;;;;;5093286;28;19973;-66
2021/08/19 01:27:29;;;;;;;;;;;16.00;99.80;;;;;;5093432;28;19953;-65
2021/08/19 01:29:55;;;;;;;;;;;16.30;99.40;;;;;;5093224;28;20005;-66
2021/08/19 01:32:22;;;;;;;;;;;16.40;99.40;;;;;;5093125;28;19908;-67
2021/08/19 01:34:51;;;;;;;;;;;16.40;99.40;;;;;;5093153;28;20061;-66
2021/08/19 01:37:18;;;;;;;;;;;16.40;99.20;;;;;;5093395;28;19915;-65
2021/08/19 01:39:45;;;;;;;;;;;16.30;99.30;;;;;;5092620;28;19924;-66
2021/08/19 01:42:11;;;;;;;;;;;16.30;98.80;;;;;;5088671;28;20276;-68
2021/08/19 01:44:38;;;;;;;;;;;16.50;98.30;;;;;;5054708;28;19999;-66
2021/08/19 01:47:06;;;;;;;;;;;16.70;97.80;;;;;;5072253;28;20418;-66
2021/08/19 01:49:33;;;;;;;;;;;16.80;97.90;;;;;;5072395;28;19909;-67
2021/08/19 01:52:01;;;;;;;;;;;16.80;97.50;;;;;;5072723;28;19909;-67
2021/08/19 01:54:28;;;;;;;;;;;16.90;96.90;;;;;;5072475;28;19915;-67
2021/08/19 01:56:55;;;;;;;;;;;17.00;96.50;;;;;;5072020;28;19908;-67
2021/08/19 01:59:23;;;;;;;;;;;17.10;96.30;;;;;;5072598;28;19973;-68
2021/08/19 02:01:49;;;;;;;;;;;17.30;96.10;;;;;;5072065;28;20456;-67
2021/08/19 02:04:16;;;;;;;;;;;17.30;96.40;;;;;;5072298;28;19924;-68
2021/08/19 02:06:43;;;;;;;;;;;17.30;96.70;;;;;;5072593;28;19913;-67
2021/08/19 02:09:09;;;;;;;;;;;17.30;96.90;;;;;;5072299;28;19915;-67
2021/08/19 02:11:38;;;;;;;;;;;17.30;97.60;;;;;;5071424;28;19912;-67
2021/08/19 02:14:05;;;;;;;;;;;17.40;97.50;;;;;;5071737;28;19916;-68
2021/08/19 02:16:32;;;;;;;;;;;17.30;97.50;;;;;;5072305;28;19908;-67
2021/08/19 02:18:59;;;;;;;;;;;17.30;97.30;;;;;;5072446;28;19919;-65
2021/08/19 02:21:25;;;;;;;;;;;17.30;97.50;;;;;;5072576;28;19913;-68
2021/08/19 02:23:52;;;;;;;;;;;17.20;97.50;;;;;;5071922;28;19951;-66
2021/08/19 02:26:18;;;;;;;;;;;17.10;97.70;;;;;;5071046;28;19916;-66
2021/08/19 02:28:45;;;;;;;;;;;17.10;97.30;;;;;;5072286;28;20003;-66
2021/08/19 02:31:12;;;;;;;;;;;17.20;97.20;;;;;;5072120;28;19966;-66
2021/08/19 02:33:38;;;;;;;;;;;17.30;97.20;;;;;;5071817;28;19908;-66
2021/08/19 02:36:05;;;;;;;;;;;17.30;95.90;;;;;;5072136;28;19915;-66
2021/08/19 02:38:32;;;;;;;;;;;17.30;96.70;;;;;;5072346;28;19962;-66
2021/08/19 02:40:58;;;;;;;;;;;17.30;97.20;;;;;;5072194;28;19920;-65
2021/08/19 02:43:25;;;;;;;;;;;17.30;96.40;;;;;;5072260;28;19981;-66
2021/08/19 02:45:52;;;;;;;;;;;17.30;96.80;;;;;;5071535;28;19944;-66
2021/08/19 02:48:18;;;;;;;;;;;17.30;96.90;;;;;;5072140;28;19908;-67
2021/08/19 02:50:45;;;;;;;;;;;17.40;97.00;;;;;;5072067;28;19955;-66
2021/08/19 02:53:12;;;;;;;;;;;17.50;97.30;;;;;;5071886;28;19908;-66
2021/08/19 02:55:38;;;;;;;;;;;17.50;97.30;;;;;;5071824;28;20398;-66
2021/08/19 02:58:05;;;;;;;;;;;17.60;97.60;;;;;;5072147;28;19959;-66
2021/08/19 03:00:32;;;;;;;;;;;17.50;97.50;;;;;;5072203;28;19920;-67
2021/08/19 03:02:58;;;;;;;;;;;17.60;97.50;;;;;;5071908;28;20394;-66
2021/08/19 03:05:25;;;;;;;;;;;17.50;97.10;;;;;;5071867;28;19909;-66
2021/08/19 03:07:52;;;;;;;;;;;17.40;98.30;;;;;;5071795;28;19909;-66
2021/08/19 03:10:18;;;;;;;;;;;17.30;99.20;;;;;;5071894;28;19948;-66
2021/08/19 03:12:45;;;;;;;;;;;17.30;99.50;;;;;;5072061;28;19908;-67
2021/08/19 03:15:12;;;;;;;;;;;17.30;99.60;;;;;;5071756;28;19908;-66
2021/08/19 03:17:38;;;;;;;;;;;17.30;99.90;;;;;;5071974;28;19909;-68
2021/08/19 03:20:07;;;;;;;;;;;17.20;99.90;;;;;;5071671;28;19916;-66
2021/08/19 03:22:34;;;;;;;;;;;17.30;99.70;;;;;;5071582;28;19909;-66
2021/08/19 03:25:01;;;;;;;;;;;17.20;99.50;;;;;;5071832;28;20279;-67
2021/08/19 03:27:31;;;;;;;;;;;17.10;98.90;;;;;;5071565;28;20015;-66
2021/08/19 03:29:58;;;;;;;;;;;17.10;99.90;;;;;;5071385;28;19915;-67
2021/08/19 03:32:24;;;;;;;;;;;17.20;99.90;;;;;;5071723;28;19908;-65
2021/08/19 03:34:51;;;;;;;;;;;17.30;99.90;;;;;;5071573;28;19955;-67
2021/08/19 03:37:18;;;;;;;;;;;17.10;99.90;;;;;;5072099;28;20343;-67
2021/08/19 03:39:44;;;;;;;;;;;17.20;99.90;;;;;;5074980;28;19962;-67
2021/08/19 03:42:11;;;;;;;;;;;17.30;99.10;;;;;;5075562;28;20370;-65
2021/08/19 03:44:38;;;;;;;;;;;17.40;99.20;;;;;;5075280;28;19958;-66
2021/08/19 03:47:05;;;;;;;;;;;17.50;98.70;;;;;;5074881;28;19924;-66
2021/08/19 03:49:32;;;;;;;;;;;17.60;98.30;;;;;;5074875;28;19912;-66
2021/08/19 03:51:58;;;;;;;;;;;17.70;98.30;;;;;;5074728;28;20367;-65
2021/08/19 03:54:25;;;;;;;;;;;17.70;98.30;;;;;;5074889;28;19916;-67
2021/08/19 03:56:52;;;;;;;;;;;17.70;97.90;;;;;;5074968;28;19953;-67
2021/08/19 03:59:20;;;;;;;;;;;17.70;98.60;;;;;;5074262;28;19913;-67
2021/08/19 04:01:47;;;;;;;;;;;17.60;98.30;;;;;;5074744;28;19952;-66
2021/08/19 04:04:13;;;;;;;;;;;17.70;98.30;;;;;;5074805;28;19914;-66
2021/08/19 04:06:40;;;;;;;;;;;17.70;97.90;;;;;;5074797;28;20283;-66
2021/08/19 04:09:07;;;;;;;;;;;17.70;98.10;;;;;;5074629;28;19963;-67
2021/08/19 04:11:33;;;;;;;;;;;17.70;97.70;;;;;;5056390;28;19909;-66
2021/08/19 04:14:00;;;;;;;;;;;17.60;97.90;;;;;;5074523;28;19909;-67
2021/08/19 04:16:27;;;;;;;;;;;17.60;98.10;;;;;;5074187;28;19920;-65
2021/08/19 04:18:53;;;;;;;;;;;17.50;98.40;;;;;;5074487;28;19968;-67
2021/08/19 04:21:20;;;;;;;;;;;17.50;98.50;;;;;;5074576;28;19916;-65
2021/08/19 04:23:47;;;;;;;;;;;17.40;98.70;;;;;;5074438;28;19920;-67
2021/08/19 04:26:13;;;;;;;;;;;17.40;98.90;;;;;;5074552;28;19908;-67
2021/08/19 04:28:40;;;;;;;;;;;17.30;99.20;;;;;;5074462;28;19915;-67
2021/08/19 04:31:07;;;;;;;;;;;17.20;99.50;;;;;;5073934;28;19944;-66
2021/08/19 04:33:34;;;;;;;;;;;17.20;99.20;;;;;;5073913;28;19908;-66
2021/08/19 04:36:00;;;;;;;;;;;17.20;99.50;;;;;;5074242;28;20313;-67
2021/08/19 04:38:27;;;;;;;;;;;17.40;99.50;;;;;;5074193;28;19913;-66
2021/08/19 04:40:55;;;;;;;;;;;17.40;99.90;;;;;;5074092;28;19913;-65
2021/08/19 04:43:22;;;;;;;;;;;17.30;99.60;;;;;;5074200;28;19962;-65
2021/08/19 04:45:48;;;;;;;;;;;17.30;99.90;;;;;;5073380;28;19909;-66
2021/08/19 04:48:15;;;;;;;;;;;17.30;99.90;;;;;;5074044;28;19919;-66
2021/08/19 04:50:42;;;;;;;;;;;17.30;99.90;;;;;;5073084;28;19908;-67
2021/08/19 04:53:08;;;;;;;;;;;17.30;99.90;;;;;;5073904;28;19915;-66
2021/08/19 04:55:35;;;;;;;;;;;17.30;99.90;;;;;;5073348;28;19909;-67
2021/08/19 04:58:02;;;;;;;;;;;17.30;99.90;;;;;;5073765;28;19915;-67
2021/08/19 05:00:28;;;;;;;;;;;17.30;99.90;;;;;;5073367;28;19916;-67
2021/08/19 05:02:55;;;;;;;;;;;17.20;99.90;;;;;;5074113;28;19916;-67
2021/08/19 05:05:22;;;;;;;;;;;17.40;99.90;;;;;;5073662;28;19919;-67
2021/08/19 05:07:48;;;;;;;;;;;17.40;99.90;;;;;;5073284;28;19920;-66
2021/08/19 05:10:15;;;;;;;;;;;17.30;99.90;;;;;;5073676;28;19916;-67
2021/08/19 05:12:42;;;;;;;;;;;17.20;99.90;;;;;;5073461;28;19931;-66
2021/08/19 05:15:09;;;;;;;;;;;17.10;99.90;;;;;;5073169;28;19908;-65
2021/08/19 05:17:36;;;;;;;;;;;17.00;99.90;;;;;;5073232;28;20586;-66
2021/08/19 05:20:03;;;;;;;;;;;17.00;99.90;;;;;;5073486;28;19952;-66
2021/08/19 05:22:30;;;;;;;;;;;16.90;99.90;;;;;;5073638;28;19923;-65
2021/08/19 05:24:56;;;;;;;;;;;17.00;99.90;;;;;;5073524;28;20359;-67
2021/08/19 05:27:23;;;;;;;;;;;17.00;99.90;;;;;;5073423;28;19919;-67
2021/08/19 05:29:49;;;;;;;;;;;17.00;99.90;;;;;;5055115;28;19917;-65
2021/08/19 05:32:16;;;;;;;;;;;17.00;99.90;;;;;;5073187;28;19912;-67
2021/08/19 05:34:43;;;;;;;;;;;16.80;99.90;;;;;;5072975;28;19954;-67
2021/08/19 05:37:09;;;;;;;;;;;16.80;99.90;;;;;;5072808;28;19912;-67
2021/08/19 05:39:36;;;;;;;;;;;16.70;99.90;;;;;;5072799;28;19928;-67
2021/08/19 05:42:03;;;;;;;;;;;16.60;99.90;;;;;;5072992;28;20330;-67
2021/08/19 05:44:30;;;;;;;;;;;16.60;99.90;;;;;;5088258;28;19961;-66
2021/08/19 05:46:56;;;;;;;;;;;16.60;99.90;;;;;;5072621;28;20386;-66
2021/08/19 05:49:23;;;;;;;;;;;16.70;99.90;;;;;;5072913;28;19909;-67
2021/08/19 05:51:50;;;;;;;;;;;16.70;99.90;;;;;;5072320;28;20034;-66
2021/08/19 05:54:16;;;;;;;;;;;16.80;99.90;;;;;;5072593;28;19936;-67
2021/08/19 05:56:43;;;;;;;;;;;16.80;99.90;;;;;;5072476;28;19916;-66
2021/08/19 05:59:10;;;;;;;;;;;16.80;99.90;;;;;;5072637;28;20268;-66
2021/08/19 06:01:38;;;;;;;;;;;16.90;99.90;;;;;;5072596;28;20320;-67
2021/08/19 06:04:04;;;;;;;;;;;16.80;99.90;;;;;;5072530;28;19915;-66
2021/08/19 06:06:31;;;;;;;;;;;16.80;99.90;;;;;;5072532;28;20252;-67
2021/08/19 06:08:58;;;;;;;;;;;16.70;99.90;;;;;;5072349;28;20386;-68
2021/08/19 06:11:24;;;;;;;;;;;16.70;99.90;;;;;;5072505;28;19982;-67
2021/08/19 06:13:51;;;;;;;;;;;16.60;99.90;;;;;;5072070;28;20287;-67
2021/08/19 06:16:17;;;;;;;;;;;16.60;99.90;;;;;;5072629;28;20359;-67
2021/08/19 06:18:44;;;;;;;;;;;16.60;99.90;;;;;;5072126;28;19956;-66
2021/08/19 06:21:11;;;;;;;;;;;16.60;99.90;;;;;;5072311;28;19912;-66
2021/08/19 06:23:37;;;;;;;;;;;16.60;99.90;;;;;;5072356;28;19978;-67
2021/08/19 06:26:04;;;;;;;;;;;16.60;99.90;;;;;;5072666;28;20244;-66
2021/08/19 06:28:31;;;;;;;;;;;16.50;99.90;;;;;;5072034;28;19963;-68
2021/08/19 06:30:58;;;;;;;;;;;16.50;99.90;;;;;;5072399;28;20320;-66
2021/08/19 06:33:24;;;;;;;;;;;16.50;99.90;;;;;;5072223;28;19961;-66
2021/08/19 06:35:51;;;;;;;;;;;16.40;99.90;;;;;;5071970;28;19915;-65
2021/08/19 06:38:18;;;;;;;;;;;16.40;99.90;;;;;;5072037;28;20469;-67
2021/08/19 06:40:45;;;;;;;;;;;16.30;99.90;;;;;;5072204;28;19917;-66
2021/08/19 06:43:11;;;;;;;;;;;16.30;99.90;;;;;;5072243;28;19913;-65
2021/08/19 06:45:38;;;;;;;;;;;16.20;99.90;;;;;;5071418;28;20282;-67
2021/08/19 06:48:05;;;;;;;;;;;16.20;99.90;;;;;;5071991;28;19908;-67
2021/08/19 06:50:32;;;;;;;;;;;16.20;99.90;;;;;;5071816;28;19908;-67
2021/08/19 06:52:59;;;;;;;;;;;16.20;99.90;;;;;;5069153;28;19954;-67
2021/08/19 06:55:27;;;;;;;;;;;16.10;99.90;;;;;;5069265;28;19948;-67
2021/08/19 06:57:54;;;;;;;;;;;16.10;99.90;;;;;;5069566;28;19962;-68
2021/08/19 07:00:21;;;;;;;;;;;16.10;99.90;;;;;;5051849;28;20077;-66
2021/08/19 07:02:47;;;;;;;;;;;16.10;99.90;;;;;;5070009;28;20342;-67
2021/08/19 07:05:14;;;;;;;;;;;16.10;99.90;;;;;;5069645;28;20333;-67
2021/08/19 07:07:41;;;;;;;;;;;16.00;99.90;;;;;;5069856;28;19912;-68
2021/08/19 07:10:08;;;;;;;;;;;15.90;99.90;;;;;;5069961;28;19913;-68
2021/08/19 07:12:35;;;;;;;;;;;15.90;99.90;;;;;;5070780;28;19944;-68
2021/08/19 07:15:02;;;;;;;;;;;15.90;99.90;;;;;;5073314;28;20033;-66
2021/08/19 07:17:29;;;;;;;;;;;15.90;99.90;;;;;;5073184;28;20359;-68
2021/08/19 07:19:56;;;;;;;;;;;15.90;99.90;;;;;;5073295;28;19920;-68
2021/08/19 07:22:23;;;;;;;;;;;15.80;99.90;;;;;;5055567;28;19952;-68
2021/08/19 07:24:49;;;;;;;;;;;15.80;99.90;;;;;;5073451;28;19967;-66
2021/08/19 07:27:16;;;;;;;;;;;15.80;99.90;;;;;;5073365;28;19959;-67
2021/08/19 07:29:43;;;;;;;;;;;15.70;99.90;;;;;;5072728;28;19953;-68
2021/08/19 07:32:10;;;;;;;;;;;15.70;99.90;;;;;;5073231;28;19912;-69
2021/08/19 07:34:36;;;;;;;;;;;15.70;99.90;;;;;;5073061;28;20374;-65
2021/08/19 07:37:03;;;;;;;;;;;15.70;99.90;;;;;;5073317;28;19909;-66
2021/08/19 07:39:30;;;;;;;;;;;15.70;99.90;;;;;;5072983;28;20351;-67
2021/08/19 07:41:56;;;;;;;;;;;15.70;99.90;;;;;;5072646;28;19913;-67
2021/08/19 07:44:23;;;;;;;;;;;15.70;99.90;;;;;;5072768;28;19966;-67
2021/08/19 07:46:50;;;;;;;;;;;15.60;99.90;;;;;;5072985;28;19924;-67
2021/08/19 07:49:20;;;;;;;;;;;15.60;99.90;;;;;;5072903;28;19989;-69
2021/08/19 07:51:47;;;;;;;;;;;15.60;99.90;;;;;;5072953;28;20385;-66
2021/08/19 07:54:16;;;;;;;;;;;15.60;99.90;;;;;;5072846;28;20332;-67
2021/08/19 07:56:43;;;;;;;;;;;15.50;99.90;;;;;;5072484;28;19909;-67
2021/08/19 07:59:10;;;;;;;;;;;15.50;99.90;;;;;;5072543;28;19920;-66
2021/08/19 08:01:37;;;;;;;;;;;15.50;99.90;;;;;;5072484;28;19920;-66
2021/08/19 08:04:04;;;;;;;;;;;15.50;99.90;;;;;;5072325;28;19930;-67
2021/08/19 08:06:31;;;;;;;;;;;15.50;99.90;;;;;;5072848;28;19909;-67
2021/08/19 08:08:57;;;;;;;;;;;15.50;99.90;;;;;;5072214;28;20006;-67
2021/08/19 08:11:24;;;;;;;;;;;15.60;99.90;;;;;;5072009;28;19932;-67
2021/08/19 08:13:50;;;;;;;;;;;15.50;99.90;;;;;;5072780;28;19919;-67
2021/08/19 08:16:17;;;;;;;;;;;15.50;99.90;;;;;;5072271;28;19912;-67
2021/08/19 08:18:44;;;;;;;;;;;15.40;99.90;;;;;;5072213;28;19990;-67
2021/08/19 08:21:14;;;;;;;;;;;15.40;99.90;;;;;;5072640;28;19956;-67
2021/08/19 08:23:42;;;;;;;;;;;15.40;99.90;;;;;;5071047;28;20003;-67
2021/08/19 08:26:12;;;;;;;;;;;15.40;99.90;;;;;;5071674;28;19919;-68
2021/08/19 08:28:39;;;;;;;;;;;15.40;99.90;;;;;;5072054;28;20252;-67
2021/08/19 08:31:07;;;;;;;;;;;15.40;99.90;;;;;;5072064;28;19916;-67
2021/08/19 08:33:35;;;;;;;;;;;15.40;99.90;;;;;;5072103;28;20069;-67
2021/08/19 08:36:01;;;;;;;;;;;15.40;99.90;;;;;;5071968;28;20567;-67
2021/08/19 08:38:30;;;;;;;;;;;15.30;99.90;;;;;;5071861;28;19991;-66
2021/08/19 08:40:57;;;;;;;;;;;15.20;99.90;;;;;;5071712;28;19917;-66
2021/08/19 08:43:25;;;;;;;;;;;15.20;99.90;;;;;;5071807;28;19913;-67
2021/08/19 08:45:52;;;;;;;;;;;15.20;99.90;;;;;;5071499;28;19912;-67
2021/08/19 08:48:22;;;;;;;;;;;15.20;99.90;;;;;;5071594;28;19958;-68
2021/08/19 08:50:49;;;;;;;;;;;15.20;99.90;;;;;;5071872;28;20333;-66
2021/08/19 08:53:16;;;;;;;;;;;15.20;99.90;;;;;;5071721;28;20307;-68
2021/08/19 08:55:43;;;;;;;;;;;15.20;99.90;;;;;;5071090;28;19908;-68
2021/08/19 08:58:11;;;;;;;;;;;15.20;99.90;;;;;;5071763;28;19908;-66
2021/08/19 09:00:42;;;;;;;;;;;15.20;99.90;;;;;;5071605;28;19924;-66
2021/08/19 09:03:09;;;;;;;;;;;15.20;99.90;;;;;;5072201;28;20478;-67
2021/08/19 09:05:40;;;;;;;;;;;15.30;99.90;;;;;;5072309;28;19996;-67
2021/08/19 09:08:13;;;;;;;;;;;15.20;99.90;;;;;;5072960;28;19913;-68
2021/08/19 09:10:39;;;;;;;;;;;15.30;99.90;;;;;;5073049;28;20371;-67
2021/08/19 09:13:07;;;;;;;;;;;15.20;99.90;;;;;;5073304;28;20011;-65
2021/08/19 09:15:34;;;;;;;;;;;15.20;99.90;;;;;;5073124;28;19936;-67
2021/08/19 09:18:02;;;;;;;;;;;15.20;99.90;;;;;;5073278;28;19955;-66
2021/08/19 09:20:32;;;;;;;;;;;15.20;99.90;;;;;;5073202;28;20356;-67
2021/08/19 09:23:00;;;;;;;;;;;15.20;99.90;;;;;;5073257;28;20003;-68
2021/08/19 09:25:31;;;;;;;;;;;15.20;99.90;;;;;;5073293;28;20420;-66
2021/08/19 09:28:16;;;;;;;;;;;15.10;99.90;;;;;;5072750;28;19952;-66
2021/08/19 09:31:00;;;;;;;;;;;15.20;99.90;;;;;;5073045;28;20003;-67
2021/08/19 09:33:30;;;;;;;;;;;15.10;99.90;;;;;;5073010;28;19912;-67
2021/08/19 09:35:57;;;;;;;;;;;15.10;99.90;;;;;;5072680;28;20038;-67
2021/08/19 09:38:25;;;;;;;;;;;15.10;99.90;;;;;;5072983;28;19954;-67
2021/08/19 09:41:01;;;;;;;;;;;15.10;99.90;;;;;;5072818;28;20325;-67
2021/08/19 09:43:57;;;;;;;;;;;15.10;99.90;;;;;;5072658;28;20003;-67
2021/08/19 09:46:34;;;;;;;;;;;15.10;99.90;;;;;;5058187;28;19916;-66
2021/08/19 09:49:20;;;;;;;;;;;15.10;99.90;;;;;;5072854;28;19909;-66
2021/08/19 09:52:05;;;;;;;;;;;15.10;99.90;;;;;;5072534;28;19912;-67
2021/08/19 09:54:33;;;;;;;;;;;15.00;99.90;;;;;;5072712;28;20367;-66
2021/08/19 09:56:59;;;;;;;;;;;15.00;99.90;;;;;;5072462;28;19908;-69
2021/08/19 09:59:27;;;;;;;;;;;15.00;99.90;;;;;;5072015;28;19939;-66
2021/08/19 10:01:55;;;;;;;;;;;15.00;99.90;;;;;;5072248;28;19909;-66
2021/08/19 10:04:25;;;;;;;;;;;15.00;99.90;;;;;;5072488;28;19995;-67
2021/08/19 10:06:55;;;;;;;;;;;14.90;99.90;;;;;;5072389;28;19919;-66
2021/08/19 10:09:22;;;;;;;;;;;14.90;99.90;;;;;;5072275;28;19916;-66
2021/08/19 10:11:50;;;;;;;;;;;14.90;99.90;;;;;;5072191;28;19908;-66
2021/08/19 10:14:18;;;;;;;;;;;14.90;99.90;;;;;;5071758;28;20412;-66
2021/08/19 10:16:46;;;;;;;;;;;14.90;99.90;;;;;;5072426;28;20004;-67
2021/08/19 10:19:33;;;;;;;;;;;14.90;99.90;;;;;;5072374;28;20172;-67
2021/08/19 10:22:14;;;;;;;;;;;14.90;99.90;;;;;;5072108;28;19914;-67
2021/08/19 10:24:44;;;;;;;;;;;14.80;99.90;;;;;;5072324;28;20006;-67
2021/08/19 10:27:19;;;;;;;;;;;14.80;99.90;;;;;;5072205;28;19912;-68
2021/08/19 10:29:47;;;;;;;;;;;14.80;99.90;;;;;;5071672;28;20076;-66
2021/08/19 10:32:40;;;;;;;;;;;14.70;99.90;;;;;;5072304;28;20363;-68
2021/08/19 10:35:11;;;;;;;;;;;14.70;99.90;;;;;;5069981;28;19923;-68
2021/08/19 10:37:47;;;;;;;;;;;14.70;99.90;;;;;;5071993;28;19958;-67
2021/08/19 10:40:20;;;;;;;;;;;14.70;99.90;;;;;;5072011;28;19916;-68
2021/08/19 10:42:47;;;;;;;;;;;14.70;99.90;;;;;;5072144;28;20389;-67
2021/08/19 10:45:32;;;;;;;;;;;14.70;99.90;;;;;;5072424;28;19908;-67
2021/08/19 10:48:02;;;;;;;;;;;14.80;99.90;;;;;;5055986;28;19921;-67
2021/08/19 10:50:30;;;;;;;;;;;14.80;99.90;;;;;;5058389;28;20558;-67
2021/08/19 10:52:58;;;;;;;;;;;14.80;99.90;;;;;;5076161;28;19909;-67
2021/08/19 10:55:25;;;;;;;;;;;14.80;99.90;;;;;;5076310;28;20047;-67
2021/08/19 10:57:53;;;;;;;;;;;14.80;99.90;;;;;;5057756;28;20333;-67
2021/08/19 11:00:36;;;;;;;;;;;14.90;99.90;;;;;;5075830;28;19938;-67
2021/08/19 11:03:02;;;;;;;;;;;14.90;99.90;;;;;;5075889;28;20294;-67
2021/08/19 11:05:32;;;;;;;;;;;15.00;99.90;;;;;;5076218;28;19912;-67
2021/08/19 11:08:00;;;;;;;;;;;15.00;99.90;;;;;;5075912;28;19947;-67
2021/08/19 11:10:28;;;;;;;;;;;15.00;99.90;;;;;;5076016;28;19952;-66
2021/08/19 11:13:04;;;;;;;;;;;15.10;99.90;;;;;;5075800;28;19916;-67
2021/08/19 11:15:32;;;;;;;;;;;15.10;99.90;;;;;;5076635;28;20294;-67
2021/08/19 11:17:59;;;;;;;;;;;15.10;99.90;;;;;;5077965;28;19915;-67
2021/08/19 11:20:30;;;;;;;;;;;15.10;99.90;;;;;;5084519;28;19916;-67
2021/08/19 11:23:08;;;;;;;;;;;15.10;99.90;;;;;;5077228;28;19920;-66
2021/08/19 11:25:36;;;;;;;;;;;15.10;99.90;;;;;;5076388;28;20007;-68
2021/08/19 11:28:18;;;;;;;;;;;15.10;99.90;;;;;;5076566;28;19954;-68
2021/08/19 11:30:46;;;;;;;;;;;15.10;99.90;;;;;;5076599;28;19991;-68
2021/08/19 11:33:19;;;;;;;;;;;15.10;99.90;;;;;;5076639;28;19995;-67
2021/08/19 11:35:50;;;;;;;;;;;15.20;99.90;;;;;;5075436;28;19915;-68
2021/08/19 11:38:18;;;;;;;;;;;15.20;99.90;;;;;;5075056;28;19913;-67
2021/08/19 11:40:46;;;;;;;;;;;15.20;99.90;;;;;;5074955;28;19924;-67
2021/08/19 11:43:19;;;;;;;;;;;15.20;99.90;;;;;;5075143;28;19916;-67
2021/08/19 11:45:46;;;;;;;;;;;15.20;99.90;;;;;;5074591;28;19912;-67
2021/08/19 11:48:13;;;;;;;;;;;15.20;99.90;;;;;;5074524;28;19917;-67
2021/08/19 11:50:41;;;;;;;;;;;15.20;99.90;;;;;;5075035;28;19913;-66
2021/08/19 11:53:08;;;;;;;;;;;15.20;99.90;;;;;;5074888;28;20375;-66
2021/08/19 11:55:37;;;;;;;;;;;15.20;99.90;;;;;;5074907;28;19912;-67
2021/08/19 11:58:17;;;;;;;;;;;15.20;99.90;;;;;;5074584;28;19908;-67
2021/08/19 12:00:57;;;;;;;;;;;15.20;99.90;;;;;;5074756;28;20287;-67
2021/08/19 12:03:24;;;;;;;;;;;15.20;99.90;;;;;;5074251;28;19909;-67
2021/08/19 12:06:01;;;;;;;;;;;15.20;99.90;;;;;;5074314;28;19908;-67
2021/08/19 12:08:27;;;;;;;;;;;15.20;99.90;;;;;;5074610;28;19916;-67
2021/08/19 12:10:56;;;;;;;;;;;15.20;99.90;;;;;;5074679;28;19908;-66
2021/08/19 12:13:23;;;;;;;;;;;15.30;99.90;;;;;;5074398;28;20371;-68
2021/08/19 12:15:50;;;;;;;;;;;15.30;99.90;;;;;;5074115;28;19919;-67
2021/08/19 12:18:21;;;;;;;;;;;15.20;99.90;;;;;;5073980;28;19912;-68
2021/08/19 12:20:48;;;;;;;;;;;15.30;99.90;;;;;;5074272;28;20021;-67
2021/08/19 12:23:19;;;;;;;;;;;15.30;99.90;;;;;;5074435;28;20429;-67
2021/08/19 12:25:46;;;;;;;;;;;15.30;99.90;;;;;;5074026;28;19936;-68
2021/08/19 12:28:13;;;;;;;;;;;15.30;99.90;;;;;;5074221;28;20394;-67
2021/08/19 12:30:56;;;;;;;;;;;15.30;99.90;;;;;;5074176;28;19909;-67
2021/08/19 12:33:36;;;;;;;;;;;15.20;99.90;;;;;;5073484;28;19999;-67
2021/08/19 12:36:12;;;;;;;;;;;15.20;99.90;;;;;;5074061;28;19915;-67
2021/08/19 12:38:40;;;;;;;;;;;15.20;99.90;;;;;;5073970;28;19908;-67
2021/08/19 12:41:14;;;;;;;;;;;15.20;99.90;;;;;;5074121;28;20361;-68
2021/08/19 12:43:41;;;;;;;;;;;15.20;99.90;;;;;;5073531;28;19961;-67
2021/08/19 12:46:08;;;;;;;;;;;15.20;99.90;;;;;;5073651;28;19921;-67
2021/08/19 12:48:35;;;;;;;;;;;15.20;99.90;;;;;;5073624;28;19909;-67
2021/08/19 12:51:19;;;;;;;;;;;15.20;99.90;;;;;;5074195;28;20347;-68
2021/08/19 12:54:03;;;;;;;;;;;15.10;99.90;;;;;;5073660;28;19908;-67
2021/08/19 12:56:31;;;;;;;;;;;15.20;99.90;;;;;;5073584;28;20363;-67
2021/08/19 12:58:58;;;;;;;;;;;15.20;99.90;;;;;;5073398;28;19916;-66
2021/08/19 13:01:25;;;;;;;;;;;15.10;99.90;;;;;;5072988;28;19916;-66
2021/08/19 13:03:52;;;;;;;;;;;15.00;99.90;;;;;;5073299;28;20290;-66
2021/08/19 13:06:20;;;;;;;;;;;14.90;99.90;;;;;;5073650;28;19948;-67
2021/08/19 13:08:47;;;;;;;;;;;14.90;99.90;;;;;;5073589;28;19913;-67
2021/08/19 13:11:17;;;;;;;;;;;14.90;99.90;;;;;;5072621;28;20003;-66
2021/08/19 13:13:43;;;;;;;;;;;14.80;99.90;;;;;;5072687;28;19944;-67
2021/08/19 13:16:10;;;;;;;;;;;14.80;99.90;;;;;;5073436;28;20260;-67
2021/08/19 13:18:37;;;;;;;;;;;14.80;99.90;;;;;;5073296;28;20236;-67
2021/08/19 13:21:03;;;;;;;;;;;14.70;99.90;;;;;;5073385;28;19916;-67
2021/08/19 13:23:30;;;;;;;;;;;14.60;99.90;;;;;;5072890;28;19962;-67
2021/08/19 13:25:57;;;;;;;;;;;14.60;99.90;;;;;;5073281;28;19913;-67
2021/08/19 13:28:23;;;;;;;;;;;14.60;99.90;;;;;;5073296;28;19962;-67
2021/08/19 13:30:50;;;;;;;;;;;14.50;99.90;;;;;;5073206;28;20007;-67
2021/08/19 13:33:17;;;;;;;;;;;14.50;99.90;;;;;;5073008;28;20261;-67
2021/08/19 13:35:43;;;;;;;;;;;14.50;99.90;;;;;;5072943;28;19908;-67
2021/08/19 13:38:10;;;;;;;;;;;14.40;99.90;;;;;;5072850;28;19970;-67
2021/08/19 13:40:37;;;;;;;;;;;14.40;99.90;;;;;;5073046;28;20015;-67
2021/08/19 13:43:03;;;;;;;;;;;14.40;99.90;;;;;;5072837;28;20485;-67
2021/08/19 13:45:31;;;;;;;;;;;14.30;99.90;;;;;;5072720;28;20488;-66
2021/08/19 13:47:57;;;;;;;;;;;14.40;99.90;;;;;;5072788;28;19950;-67
2021/08/19 13:50:24;;;;;;;;;;;14.30;99.90;;;;;;5072567;28;19916;-67
2021/08/19 13:52:52;;;;;;;;;;;14.30;99.90;;;;;;5072617;28;19909;-67
2021/08/19 13:55:18;;;;;;;;;;;14.30;99.90;;;;;;5072606;28;19909;-67
2021/08/19 13:57:45;;;;;;;;;;;14.30;99.90;;;;;;5072354;28;19917;-67
2021/08/19 14:00:12;;;;;;;;;;;14.30;99.90;;;;;;5072475;28;19963;-67
2021/08/19 14:02:38;;;;;;;;;;;14.40;99.90;;;;;;5072650;28;19915;-67
2021/08/19 14:05:05;;;;;;;;;;;14.40;99.90;;;;;;5054611;28;20458;-67
2021/08/19 14:07:32;;;;;;;;;;;14.40;99.90;;;;;;5072593;28;20378;-66
2021/08/19 14:09:59;;;;;;;;;;;14.40;99.90;;;;;;5072780;28;19909;-67
2021/08/19 14:12:25;;;;;;;;;;;14.40;99.90;;;;;;5072301;28;19934;-67
2021/08/19 14:14:52;;;;;;;;;;;14.40;99.90;;;;;;5072515;28;20003;-67
2021/08/19 14:17:18;;;;;;;;;;;14.40;99.90;;;;;;5072537;28;20014;-66
2021/08/19 14:19:45;;;;;;;;;;;14.40;99.90;;;;;;5054149;28;20267;-67
2021/08/19 14:22:12;;;;;;;;;;;14.40;99.90;;;;;;5072375;28;20359;-66